Lavalette, WV

10:11 AM EDT del 30 Marzo 2015 (GMT -0400)
Tri-State / Ferguson | | Change Station
CLOSE
Current Station
Aeroporto
Location: Huntington,
Altitudine: 837 ft
Stazioni meteo nelle vicinanze

Alt. 837 ft 38.37 °N, 82.56 °W | Updated 20 minutes ago

Parzialmente nuvoloso
Parzialmente nuvoloso
49 °F
Sembra 49 °F
N
14
Vento Variabile Vento da NNO
Gusts 21 mph

Oggi
Massima -- | Minima -- °F
--% Possibilità di precip.
Ieri
Massima -- | Minima -- °F
Precip. -- in
7:18 AM 7:50 PM
Gobba a ponente, 80% visible
Pressione 30.08 in
Visibilità 10.0 miglia
Nuvole Sereno
Punto di rugiada 31 °F
Umidità 50%
Piovosità 0.01 in
Spessore del manto nevoso Non disponibile.
Raggi UV 3 fuori da 12
Polline 8.20 fuori da 12
Qualità dell'aria Non disponibile.
Flu Activity Non disponibile.
METAR KHTS 301351Z 33012G18KT 10SM CLR 09/M01 A3008 RMK AO2 SLP186 T00941006

More Conditions Fewer Conditions

Pressione 30.08 in
Visibilità 10.0 miglia
Nuvole Sereno
Punto di rugiada 31 °F
Umidità 50%
Piovosità 0.01 in
Spessore del manto nevoso Non disponibile.
Raggi UV 3 fuori da 12
Polline 8.20 fuori da 12
Qualità dell'aria Non disponibile.
Flu Activity Non disponibile.
METAR KHTS 301351Z 33012G18KT 10SM CLR 09/M01 A3008 RMK AO2 SLP186 T00941006

More Conditions Fewer Conditions

10-Day Weather Forecast

Almanac

Astronomia

Mar. 30, 2015 Alba Tramonto
Ora attuale
Crepuscolo civile
Crepuscolo nautico
Crepuscolo astronomico
Luna
Estensione della luce visibile
Lunghezza del giorno
Tomorrow will be .
, % of the Moon is Illuminated

Gli estremi di oggi

State Highs State Lows

Community

WunderPhotos

Upload Photos

1,809,502 foto caricate!

WunderBlogs® & News

Nearby

Qualità dell'aria

  Qualità dell'aria Indice AQ Inquinante
Not available.

Profondità neve

Stazione Profondità Altitudine

Attività sismica

Città  Distanza Mag. Data & Ora
Minimo Magnitudo Mostrato è 2.5.

Temperature delle acque costiere

Località Temperatura

Stations

Stazioni meteo nelle vicinanze

Ubicazione della stazione Temp. Raffreddamento del vento Punto di rugiada Umidità Vento Precip. Alt. Aggiornato Tipo